createdAt,value
2023-04-06T00:01:32.106Z,7.20
2023-04-06T00:03:59.878Z,7.30
2023-04-06T00:06:27.822Z,7.20
2023-04-06T00:08:55.565Z,7.20
2023-04-06T00:11:23.155Z,7.20
2023-04-06T00:13:50.613Z,7.30
2023-04-06T00:16:18.103Z,7.30
2023-04-06T00:18:45.865Z,7.30
2023-04-06T00:21:16.845Z,7.40
2023-04-06T00:23:44.202Z,7.40
2023-04-06T00:26:14.085Z,7.40
2023-04-06T00:28:46.455Z,7.40
2023-04-06T00:31:14.250Z,7.40
2023-04-06T00:33:41.608Z,7.50
2023-04-06T00:36:08.990Z,7.50
2023-04-06T00:38:36.213Z,7.50
2023-04-06T00:41:05.428Z,7.60
2023-04-06T00:43:33.284Z,7.50
2023-04-06T00:46:00.639Z,7.50
2023-04-06T00:48:28.116Z,7.50
2023-04-06T00:50:55.380Z,7.50
2023-04-06T00:53:22.890Z,7.50
2023-04-06T00:55:52.480Z,7.50
2023-04-06T00:58:20.762Z,7.40
2023-04-06T01:00:53.455Z,7.50
2023-04-06T01:03:23.675Z,7.50
2023-04-06T01:05:56.330Z,7.50
2023-04-06T01:08:26.877Z,7.40
2023-04-06T01:11:04.261Z,7.40
2023-04-06T01:13:31.853Z,7.30
2023-04-06T01:16:03.229Z,7.30
2023-04-06T01:19:08.829Z,7.30
2023-04-06T01:21:37.795Z,7.20
2023-04-06T01:24:22.587Z,7.20
2023-04-06T01:27:05.824Z,7.30
2023-04-06T01:29:59.122Z,7.10
2023-04-06T01:32:49.354Z,7.00
2023-04-06T01:35:23.365Z,7.10
2023-04-06T01:38:03.251Z,7.10
2023-04-06T01:40:33.845Z,7.00
2023-04-06T01:43:01.498Z,7.00
2023-04-06T01:45:37.966Z,7.00
2023-04-06T01:48:14.640Z,6.90
2023-04-06T01:50:42.242Z,6.90
2023-04-06T01:53:12.053Z,6.90
2023-04-06T01:55:41.405Z,6.90
2023-04-06T01:58:19.705Z,6.90
2023-04-06T02:00:46.983Z,6.90
2023-04-06T02:03:16.005Z,6.90
2023-04-06T02:05:44.137Z,6.80
2023-04-06T02:08:37.432Z,6.80
2023-04-06T02:11:05.810Z,6.80
2023-04-06T02:13:42.472Z,6.80
2023-04-06T02:16:11.719Z,6.80
2023-04-06T02:18:39.152Z,6.90
2023-04-06T02:21:06.727Z,6.90
2023-04-06T02:23:33.939Z,6.90
2023-04-06T02:26:01.437Z,7.00
2023-04-06T02:28:29.496Z,6.90
2023-04-06T02:30:56.907Z,6.90
2023-04-06T02:33:27.702Z,6.90
2023-04-06T02:35:55.377Z,6.90
2023-04-06T02:38:23.781Z,7.00
2023-04-06T02:40:53.088Z,6.80
2023-04-06T02:43:25.685Z,6.80
2023-04-06T02:46:00.227Z,6.80
2023-04-06T02:48:27.809Z,6.80
2023-04-06T02:50:55.495Z,6.70
2023-04-06T02:53:23.034Z,6.80
2023-04-06T02:55:50.365Z,6.70
2023-04-06T02:58:17.740Z,6.70
2023-04-06T03:00:49.644Z,6.70
2023-04-06T03:03:17.068Z,6.80
2023-04-06T03:05:45.745Z,6.70
2023-04-06T03:08:14.526Z,6.70
2023-04-06T03:10:46.416Z,6.70
2023-04-06T03:13:15.689Z,6.70
2023-04-06T03:15:49.332Z,6.70
2023-04-06T03:18:26.403Z,6.70
2023-04-06T03:20:55.337Z,6.70
2023-04-06T03:23:26.725Z,6.60
2023-04-06T03:25:58.887Z,6.60
2023-04-06T03:28:26.241Z,6.60
2023-04-06T03:31:04.033Z,6.50
2023-04-06T03:33:57.537Z,6.50
2023-04-06T03:36:31.818Z,6.40
2023-04-06T03:38:59.824Z,6.50
2023-04-06T03:41:27.354Z,6.50
2023-04-06T03:44:11.028Z,6.50
2023-04-06T03:46:38.369Z,6.50
2023-04-06T03:49:06.103Z,6.40
2023-04-06T03:51:33.856Z,6.40
2023-04-06T03:54:01.151Z,6.40
2023-04-06T03:56:28.397Z,6.50
2023-04-06T03:58:55.638Z,6.40
2023-04-06T04:01:23.135Z,6.30
2023-04-06T04:03:51.903Z,6.40
2023-04-06T04:06:19.407Z,6.30
2023-04-06T04:08:47.034Z,6.30
2023-04-06T04:11:14.356Z,6.30
2023-04-06T04:13:41.659Z,6.30
2023-04-06T04:16:10.325Z,6.30
2023-04-06T04:18:37.734Z,6.40
2023-04-06T04:21:06.604Z,6.30
2023-04-06T04:23:35.908Z,6.30
2023-04-06T04:26:04.558Z,6.30
2023-04-06T04:28:31.947Z,6.20
2023-04-06T04:30:59.394Z,6.10
2023-04-06T04:33:28.410Z,6.10
2023-04-06T04:35:57.682Z,6.10
2023-04-06T04:38:28.276Z,6.10
2023-04-06T04:40:57.584Z,6.00
2023-04-06T04:43:24.868Z,5.90
2023-04-06T04:45:53.454Z,5.90
2023-04-06T04:48:36.645Z,5.90
2023-04-06T04:51:06.930Z,6.00
2023-04-06T04:53:49.628Z,5.90
2023-04-06T04:56:22.531Z,6.00
2023-04-06T04:58:54.821Z,6.00
2023-04-06T05:01:23.176Z,6.00
2023-04-06T05:03:51.738Z,6.00
2023-04-06T05:06:20.460Z,6.10
2023-04-06T05:08:48.412Z,6.10
2023-04-06T05:11:16.592Z,6.10
2023-04-06T05:13:47.346Z,6.10
2023-04-06T05:16:22.155Z,6.00
2023-04-06T05:18:51.352Z,6.10
2023-04-06T05:21:20.268Z,6.00
2023-04-06T05:24:07.945Z,6.10
2023-04-06T05:26:35.830Z,6.20
2023-04-06T05:29:12.332Z,6.20
2023-04-06T05:31:41.052Z,6.20
2023-04-06T05:34:10.703Z,6.30
2023-04-06T05:36:38.993Z,6.20
2023-04-06T05:39:14.902Z,6.20
2023-04-06T05:41:46.190Z,6.30
2023-04-06T05:44:14.715Z,6.40
2023-04-06T05:46:45.650Z,6.40
2023-04-06T05:49:17.393Z,6.50
2023-04-06T05:51:45.114Z,6.50
2023-04-06T05:54:12.665Z,6.60
2023-04-06T05:56:41.457Z,6.70
2023-04-06T05:59:11.375Z,6.70
2023-04-06T06:01:39.193Z,6.70
2023-04-06T06:04:07.042Z,6.90
2023-04-06T06:06:37.972Z,7.00
2023-04-06T06:09:17.029Z,7.20
2023-04-06T06:11:54.224Z,7.20
2023-04-06T06:14:25.926Z,7.40
2023-04-06T06:16:53.156Z,7.50
2023-04-06T06:19:20.749Z,7.60
2023-04-06T06:21:48.720Z,7.80
2023-04-06T06:24:16.197Z,8.00
2023-04-06T06:26:44.085Z,8.10
2023-04-06T06:29:13.798Z,8.20
2023-04-06T06:31:41.245Z,8.10
2023-04-06T06:34:08.869Z,8.10
2023-04-06T06:36:38.252Z,8.40
2023-04-06T06:39:08.988Z,8.50
2023-04-06T06:41:38.319Z,8.70
2023-04-06T06:44:06.810Z,9.20
2023-04-06T06:46:36.120Z,9.60
2023-04-06T06:49:04.105Z,10.10
2023-04-06T06:51:31.780Z,10.60
2023-04-06T06:53:59.141Z,11.10
2023-04-06T06:56:27.810Z,11.50
2023-04-06T06:58:56.090Z,11.90
2023-04-06T07:01:23.819Z,12.30
2023-04-06T07:03:51.656Z,12.70
2023-04-06T07:06:18.950Z,12.60
2023-04-06T07:08:46.678Z,13.20
2023-04-06T07:11:16.812Z,13.50
2023-04-06T07:13:44.347Z,13.70
2023-04-06T07:16:12.102Z,13.90
2023-04-06T07:18:39.439Z,13.80
2023-04-06T07:21:06.705Z,14.00
2023-04-06T07:23:34.089Z,14.30
2023-04-06T07:26:01.449Z,14.70
2023-04-06T07:28:28.742Z,14.60
2023-04-06T07:30:56.647Z,14.50
2023-04-06T07:33:24.215Z,14.80
2023-04-06T07:35:52.542Z,15.10
2023-04-06T07:38:20.237Z,15.40
2023-04-06T07:40:47.609Z,15.30
2023-04-06T07:43:15.121Z,15.20
2023-04-06T07:45:43.042Z,15.20
2023-04-06T07:48:10.964Z,15.40
2023-04-06T07:50:38.513Z,15.50
2023-04-06T07:53:06.937Z,15.80
2023-04-06T07:55:36.122Z,15.80
2023-04-06T07:58:03.409Z,16.10
2023-04-06T08:00:31.369Z,15.60
2023-04-06T08:02:58.842Z,15.60
2023-04-06T08:05:26.290Z,15.60
2023-04-06T08:07:53.644Z,15.70
2023-04-06T08:10:20.936Z,15.50
2023-04-06T08:12:48.214Z,15.20
2023-04-06T08:15:15.947Z,14.90
2023-04-06T08:17:43.292Z,14.70
2023-04-06T08:20:11.110Z,14.90
2023-04-06T08:22:38.381Z,15.10
2023-04-06T08:25:06.432Z,15.30
2023-04-06T08:27:33.682Z,15.60
2023-04-06T08:30:01.096Z,15.70
2023-04-06T08:32:28.701Z,15.70
2023-04-06T08:34:56.438Z,16.00
2023-04-06T08:37:24.180Z,15.80
2023-04-06T08:39:51.807Z,16.00
2023-04-06T08:42:22.987Z,16.20
2023-04-06T08:44:52.421Z,16.40
2023-04-06T08:47:23.058Z,16.50
2023-04-06T08:49:53.484Z,16.60
2023-04-06T08:52:21.369Z,16.80
2023-04-06T08:54:48.837Z,16.90
2023-04-06T08:57:17.504Z,17.20
2023-04-06T08:59:45.299Z,17.00
2023-04-06T09:02:18.731Z,17.00
2023-04-06T09:04:50.745Z,16.80
2023-04-06T09:07:18.283Z,16.50
2023-04-06T09:09:50.049Z,17.00
2023-04-06T09:12:32.089Z,17.20
2023-04-06T09:15:00.986Z,17.20
2023-04-06T09:17:34.614Z,16.80
2023-04-06T09:20:08.458Z,16.90
2023-04-06T09:22:40.479Z,17.00
2023-04-06T09:25:09.348Z,16.90
2023-04-06T09:27:38.155Z,16.70
2023-04-06T09:30:14.642Z,16.80
2023-04-06T09:32:53.258Z,16.50
2023-04-06T09:35:21.417Z,16.10
2023-04-06T09:37:52.746Z,16.40
2023-04-06T09:40:21.960Z,16.70
2023-04-06T09:42:58.315Z,17.00
2023-04-06T09:45:26.393Z,17.30
2023-04-06T09:47:57.236Z,17.10
2023-04-06T09:50:26.762Z,16.90
2023-04-06T09:52:58.826Z,16.90
2023-04-06T09:55:36.549Z,17.10
2023-04-06T09:58:12.542Z,16.50
2023-04-06T10:00:57.841Z,16.10
2023-04-06T10:03:46.198Z,16.70
2023-04-06T10:06:15.965Z,16.90
2023-04-06T10:08:46.668Z,16.70
2023-04-06T10:11:14.252Z,17.20
2023-04-06T10:13:42.947Z,16.80
2023-04-06T10:16:11.130Z,16.80
2023-04-06T10:18:43.678Z,17.10
2023-04-06T10:21:15.361Z,17.40
2023-04-06T10:23:59.959Z,17.60
2023-04-06T10:26:27.348Z,17.30
2023-04-06T10:28:55.683Z,16.80
2023-04-06T10:31:27.797Z,16.90
2023-04-06T10:34:03.187Z,17.10
2023-04-06T10:36:35.177Z,17.40
2023-04-06T10:39:07.386Z,17.30
2023-04-06T10:41:36.986Z,17.80
2023-04-06T10:44:04.772Z,17.50
2023-04-06T10:46:34.010Z,17.20
2023-04-06T10:49:13.126Z,16.30
2023-04-06T10:51:41.013Z,16.00
2023-04-06T10:54:08.895Z,16.20
2023-04-06T10:56:39.909Z,16.80
2023-04-06T10:59:08.641Z,16.50
2023-04-06T11:01:36.331Z,16.70
2023-04-06T11:04:04.194Z,16.90
2023-04-06T11:06:33.416Z,17.10
2023-04-06T11:09:01.205Z,16.80
2023-04-06T11:11:28.722Z,16.70
2023-04-06T11:14:00.671Z,16.70
2023-04-06T11:16:31.074Z,16.70
2023-04-06T11:19:01.339Z,16.50
2023-04-06T11:21:49.993Z,16.60
2023-04-06T11:24:25.163Z,16.50
2023-04-06T11:26:57.861Z,16.40
2023-04-06T11:29:28.071Z,16.50
2023-04-06T11:32:02.792Z,16.30
2023-04-06T11:34:38.391Z,16.50
2023-04-06T11:37:16.072Z,16.40
2023-04-06T11:40:10.265Z,16.30
2023-04-06T11:42:48.891Z,16.20
2023-04-06T11:45:17.113Z,16.30
2023-04-06T11:47:45.428Z,16.20
2023-04-06T11:50:16.880Z,16.30
2023-04-06T11:52:44.646Z,16.10
2023-04-06T11:55:16.862Z,16.10
2023-04-06T11:57:44.637Z,16.00
2023-04-06T12:00:13.289Z,16.00
2023-04-06T12:02:40.957Z,16.00
2023-04-06T12:05:09.470Z,15.80
2023-04-06T12:07:37.256Z,16.10
2023-04-06T12:10:05.962Z,16.30
2023-04-06T12:12:33.417Z,16.40
2023-04-06T12:15:00.956Z,16.50
2023-04-06T12:17:28.301Z,16.50
2023-04-06T12:19:57.175Z,16.40
2023-04-06T12:22:29.443Z,16.50
2023-04-06T12:24:56.705Z,16.30
2023-04-06T12:27:23.993Z,16.30
2023-04-06T12:29:51.669Z,16.20
2023-04-06T12:32:19.178Z,16.10
2023-04-06T12:34:46.449Z,16.30
2023-04-06T12:37:13.722Z,16.30
2023-04-06T12:39:41.752Z,16.20
2023-04-06T12:42:10.157Z,16.20
2023-04-06T12:44:37.451Z,16.20
2023-04-06T12:47:05.314Z,16.10
2023-04-06T12:49:32.696Z,16.00
2023-04-06T12:52:00.033Z,16.00
2023-04-06T12:54:28.659Z,15.90
2023-04-06T12:56:57.471Z,15.90
2023-04-06T12:59:26.216Z,16.00
2023-04-06T13:01:53.803Z,16.00
2023-04-06T13:04:21.158Z,16.00
2023-04-06T13:06:48.368Z,16.10
2023-04-06T13:09:15.697Z,16.00
2023-04-06T13:11:43.105Z,16.10
2023-04-06T13:14:10.727Z,16.20
2023-04-06T13:16:38.592Z,16.40
2023-04-06T13:19:06.334Z,16.40
2023-04-06T13:21:34.295Z,16.60
2023-04-06T13:24:06.034Z,16.50
2023-04-06T13:26:33.384Z,16.40
2023-04-06T13:29:01.747Z,16.40
2023-04-06T13:31:29.405Z,16.50
2023-04-06T13:33:56.693Z,16.50
2023-04-06T13:36:23.973Z,16.30
2023-04-06T13:38:51.416Z,16.30
2023-04-06T13:41:22.367Z,16.20
2023-04-06T13:43:50.726Z,16.30
2023-04-06T13:46:18.046Z,16.30
2023-04-06T13:48:45.740Z,16.40
2023-04-06T13:51:14.550Z,16.30
2023-04-06T13:53:42.044Z,16.20
2023-04-06T13:56:09.384Z,16.30
2023-04-06T13:58:37.536Z,16.30
2023-04-06T14:01:07.470Z,16.30
2023-04-06T14:03:35.182Z,16.10
2023-04-06T14:08:43.084Z,16.20
2023-04-06T14:11:14.440Z,16.20
2023-04-06T14:13:42.955Z,16.30
2023-04-06T14:16:10.507Z,16.20
2023-04-06T14:18:38.190Z,16.30
2023-04-06T14:21:05.568Z,16.30
2023-04-06T14:23:34.032Z,16.10
2023-04-06T14:26:09.380Z,16.00
2023-04-06T14:28:37.031Z,16.10
2023-04-06T14:31:13.015Z,16.20
2023-04-06T14:33:44.047Z,16.30
2023-04-06T14:36:16.645Z,16.30
2023-04-06T14:38:50.213Z,16.10
2023-04-06T14:41:19.075Z,16.10
2023-04-06T14:43:49.443Z,15.70
2023-04-06T14:46:17.090Z,15.70
2023-04-06T14:48:44.829Z,15.70
2023-04-06T14:51:12.731Z,15.70
2023-04-06T14:53:40.545Z,15.60
2023-04-06T14:56:08.054Z,15.70
2023-04-06T14:58:35.310Z,15.70
2023-04-06T15:01:03.456Z,15.80
2023-04-06T15:03:31.179Z,15.80
2023-04-06T15:05:59.049Z,15.80
2023-04-06T15:08:26.479Z,15.90
2023-04-06T15:10:55.533Z,16.10
2023-04-06T15:13:22.866Z,16.00
2023-04-06T15:15:52.413Z,16.10
2023-04-06T15:18:19.848Z,16.00
2023-04-06T15:20:47.124Z,15.80
2023-04-06T15:23:14.358Z,15.70
2023-04-06T15:25:42.299Z,15.70
2023-04-06T15:28:09.715Z,15.80
2023-04-06T15:30:37.686Z,15.90
2023-04-06T15:33:07.243Z,16.00
2023-04-06T15:35:42.836Z,16.10
2023-04-06T15:38:10.758Z,16.00
2023-04-06T15:40:46.541Z,16.00
2023-04-06T15:43:14.304Z,16.00
2023-04-06T15:45:41.911Z,15.80
2023-04-06T15:48:09.687Z,15.90
2023-04-06T15:50:38.205Z,15.90
2023-04-06T15:53:05.819Z,15.90
2023-04-06T15:55:33.194Z,15.90
2023-04-06T15:58:00.681Z,15.80
2023-04-06T16:00:28.848Z,15.80
2023-04-06T16:02:57.138Z,15.80
2023-04-06T16:05:25.106Z,15.70
2023-04-06T16:07:53.455Z,15.80
2023-04-06T16:10:21.063Z,15.70
2023-04-06T16:12:48.341Z,15.70
2023-04-06T16:15:15.803Z,15.70
2023-04-06T16:17:43.616Z,15.70
2023-04-06T16:20:12.003Z,15.70
2023-04-06T16:22:39.300Z,15.70
2023-04-06T16:25:06.926Z,15.70
2023-04-06T16:27:34.241Z,15.60
2023-04-06T16:32:29.573Z,15.40
2023-04-06T16:34:58.066Z,15.40
2023-04-06T16:37:27.160Z,15.40
2023-04-06T16:39:54.396Z,15.40
2023-04-06T16:42:21.653Z,15.40
2023-04-06T16:44:49.007Z,15.40
2023-04-06T16:47:16.746Z,15.30
2023-04-06T16:49:44.227Z,15.30
2023-04-06T16:52:11.769Z,15.20
2023-04-06T16:54:39.069Z,15.20
2023-04-06T16:57:06.720Z,15.20
2023-04-06T16:59:35.342Z,15.10
2023-04-06T17:02:02.891Z,15.10
2023-04-06T17:04:30.256Z,15.10
2023-04-06T17:06:57.615Z,14.90
2023-04-06T17:09:25.445Z,14.90
2023-04-06T17:11:53.105Z,14.80
2023-04-06T17:14:20.374Z,14.80
2023-04-06T17:16:47.648Z,14.70
2023-04-06T17:19:14.894Z,14.70
2023-04-06T17:21:42.376Z,14.70
2023-04-06T17:24:09.815Z,14.60
2023-04-06T17:26:37.928Z,14.50
2023-04-06T17:29:05.326Z,14.40
2023-04-06T17:31:32.973Z,14.40
2023-04-06T17:34:00.444Z,14.40
2023-04-06T17:36:28.384Z,14.40
2023-04-06T17:38:55.779Z,14.40
2023-04-06T17:41:24.041Z,14.40
2023-04-06T17:43:51.546Z,14.30
2023-04-06T17:46:21.129Z,14.30
2023-04-06T17:48:48.574Z,14.20
2023-04-06T17:51:18.821Z,14.20
2023-04-06T17:53:46.622Z,14.20
2023-04-06T17:56:14.493Z,14.10
2023-04-06T17:58:42.003Z,14.10
2023-04-06T18:01:11.658Z,14.00
2023-04-06T18:03:39.348Z,14.00
2023-04-06T18:06:13.730Z,13.90
2023-04-06T18:08:42.403Z,13.90
2023-04-06T18:11:21.386Z,13.80
2023-04-06T18:13:49.053Z,13.80
2023-04-06T18:16:17.463Z,13.80
2023-04-06T18:18:45.336Z,13.80
2023-04-06T18:21:12.564Z,13.70
2023-04-06T18:23:39.821Z,13.70
2023-04-06T18:26:14.018Z,13.70
2023-04-06T18:28:41.455Z,13.60
2023-04-06T18:31:08.720Z,13.60
2023-04-06T18:33:36.095Z,13.50
2023-04-06T18:36:03.537Z,13.40
2023-04-06T18:38:31.066Z,13.50
2023-04-06T18:40:58.977Z,13.50
2023-04-06T18:43:26.257Z,13.40
2023-04-06T18:45:53.517Z,13.40
2023-04-06T18:48:20.815Z,13.30
2023-04-06T18:50:57.555Z,13.30
2023-04-06T18:53:24.803Z,13.20
2023-04-06T18:55:52.069Z,13.20
2023-04-06T18:58:19.576Z,13.20
2023-04-06T19:00:47.207Z,13.10
2023-04-06T19:03:14.620Z,13.10
2023-04-06T19:05:42.178Z,13.00
2023-04-06T19:08:09.875Z,12.90
2023-04-06T19:10:38.479Z,12.90
2023-04-06T19:13:06.043Z,12.80
2023-04-06T19:15:36.662Z,12.60
2023-04-06T19:18:04.180Z,12.70
2023-04-06T19:20:34.623Z,12.60
2023-04-06T19:23:03.793Z,12.60
2023-04-06T19:25:31.361Z,12.40
2023-04-06T19:27:58.619Z,12.20
2023-04-06T19:30:26.074Z,12.30
2023-04-06T19:32:53.606Z,12.30
2023-04-06T19:35:21.104Z,12.10
2023-04-06T19:37:48.594Z,11.90
2023-04-06T19:40:16.166Z,11.80
2023-04-06T19:42:43.422Z,11.80
2023-04-06T19:45:11.213Z,11.90
2023-04-06T19:47:39.118Z,11.80
2023-04-06T19:50:09.975Z,11.70
2023-04-06T19:52:37.607Z,11.60
2023-04-06T19:55:05.203Z,11.50
2023-04-06T19:57:32.524Z,11.50
2023-04-06T19:59:59.813Z,11.60
2023-04-06T20:02:27.289Z,11.70
2023-04-06T20:04:54.613Z,11.80
2023-04-06T20:07:22.003Z,11.60
2023-04-06T20:09:49.183Z,11.40
2023-04-06T20:12:16.458Z,11.40
2023-04-06T20:14:43.681Z,11.40
2023-04-06T20:17:10.977Z,11.40
2023-04-06T20:19:38.182Z,11.40
2023-04-06T20:22:05.621Z,11.50
2023-04-06T20:24:32.911Z,11.60
2023-04-06T20:27:00.182Z,11.50
2023-04-06T20:29:27.800Z,11.30
2023-04-06T20:31:55.279Z,11.20
2023-04-06T20:34:25.964Z,11.10
2023-04-06T20:36:53.689Z,11.10
2023-04-06T20:39:21.654Z,11.10
2023-04-06T20:41:49.113Z,11.10
2023-04-06T20:44:16.772Z,11.10
2023-04-06T20:46:45.814Z,11.10
2023-04-06T20:49:13.318Z,11.10
2023-04-06T20:51:42.506Z,11.10
2023-04-06T20:54:10.257Z,11.20
2023-04-06T20:56:38.022Z,11.20
2023-04-06T20:59:05.892Z,11.00
2023-04-06T21:01:33.268Z,11.00
2023-04-06T21:04:02.546Z,10.90
2023-04-06T21:06:32.389Z,11.00
2023-04-06T21:09:00.338Z,11.10
2023-04-06T21:11:27.796Z,11.00
2023-04-06T21:13:55.210Z,11.00
2023-04-06T21:16:22.871Z,10.80
2023-04-06T21:18:50.264Z,10.60
2023-04-06T21:21:17.566Z,10.50
2023-04-06T21:23:44.864Z,10.40
2023-04-06T21:26:13.293Z,10.40
2023-04-06T21:28:40.523Z,10.30
2023-04-06T21:31:10.927Z,10.30
2023-04-06T21:33:38.299Z,10.30
2023-04-06T21:36:07.192Z,10.40
2023-04-06T21:38:37.919Z,10.40
2023-04-06T21:41:06.657Z,10.40
2023-04-06T21:43:34.403Z,10.30
2023-04-06T21:46:02.147Z,10.20
2023-04-06T21:48:29.505Z,10.10
2023-04-06T21:50:56.871Z,10.20
2023-04-06T21:53:24.182Z,10.30
2023-04-06T21:55:51.472Z,10.30
2023-04-06T21:58:18.836Z,10.10
2023-04-06T22:00:46.341Z,10.10
2023-04-06T22:03:13.908Z,10.00
2023-04-06T22:05:41.342Z,10.00
2023-04-06T22:08:11.289Z,10.00
2023-04-06T22:10:44.906Z,10.10
2023-04-06T22:13:13.005Z,10.10
2023-04-06T22:15:40.291Z,10.20
2023-04-06T22:18:07.485Z,10.30
2023-04-06T22:20:34.753Z,10.10
2023-04-06T22:23:02.028Z,10.10
2023-04-06T22:25:29.398Z,10.00
2023-04-06T22:27:56.582Z,10.10
2023-04-06T22:30:23.805Z,10.20
2023-04-06T22:32:51.239Z,10.30
2023-04-06T22:35:18.563Z,10.30
2023-04-06T22:37:45.828Z,10.40
2023-04-06T22:40:13.480Z,10.40
2023-04-06T22:42:40.738Z,10.40
2023-04-06T22:45:09.575Z,10.30
2023-04-06T22:47:37.876Z,10.30
2023-04-06T22:50:05.932Z,10.20
2023-04-06T22:52:33.182Z,10.30
2023-04-06T22:55:00.613Z,10.20
2023-04-06T22:57:29.168Z,10.20
2023-04-06T22:59:56.541Z,10.10
2023-04-06T23:02:23.798Z,9.90
2023-04-06T23:04:51.187Z,9.70
2023-04-06T23:07:18.399Z,9.70
2023-04-06T23:09:45.678Z,9.80
2023-04-06T23:12:13.057Z,9.80
2023-04-06T23:14:40.369Z,9.70
2023-04-06T23:17:07.988Z,9.80
2023-04-06T23:19:35.731Z,9.60
2023-04-06T23:22:03.143Z,9.40
2023-04-06T23:24:30.336Z,9.40
2023-04-06T23:26:57.597Z,9.50
2023-04-06T23:29:24.862Z,9.50
2023-04-06T23:31:52.188Z,9.60
2023-04-06T23:34:19.435Z,9.70
2023-04-06T23:36:46.760Z,9.70
2023-04-06T23:39:14.268Z,9.70
2023-04-06T23:41:41.719Z,9.80
2023-04-06T23:44:09.014Z,9.80
2023-04-06T23:46:36.330Z,9.80
2023-04-06T23:49:03.592Z,9.70
2023-04-06T23:51:31.756Z,9.70
2023-04-06T23:53:59.161Z,9.80
2023-04-06T23:56:26.571Z,9.70
2023-04-06T23:58:53.792Z,9.60
